createdAt,value
2018-08-06T00:01:43.462Z,"    0"
2018-08-06T00:06:39.087Z,"    0"
2018-08-06T00:11:34.954Z,"    0"
2018-08-06T00:16:30.745Z,"    0"
2018-08-06T00:21:26.396Z,"    0"
2018-08-06T00:26:22.354Z,"    0"
2018-08-06T00:31:17.974Z,"    0"
2018-08-06T00:36:13.987Z,"    0"
2018-08-06T00:41:09.511Z,"    0"
2018-08-06T00:46:06.473Z,"    0"
2018-08-06T00:51:01.849Z,"    0"
2018-08-06T00:55:58.695Z,"    0"
2018-08-06T01:00:54.245Z,"    0"
2018-08-06T01:05:50.098Z,"    0"
2018-08-06T01:10:46.353Z,"    0"
2018-08-06T01:15:42.170Z,"    0"
2018-08-06T01:20:38.849Z,"    0"
2018-08-06T01:25:34.334Z,"    0"
2018-08-06T01:30:30.050Z,"    0"
2018-08-06T01:35:25.987Z,"    0"
2018-08-06T01:40:21.767Z,"    0"
2018-08-06T01:45:18.088Z,"    0"
2018-08-06T01:50:14.110Z,"    0"
2018-08-06T01:55:09.856Z,"    0"
2018-08-06T02:00:05.661Z,"    0"
2018-08-06T02:05:02.014Z,"    0"
2018-08-06T02:09:58.896Z,"    0"
2018-08-06T02:14:54.315Z,"    0"
2018-08-06T02:19:50.097Z,"    0"
2018-08-06T02:24:47.039Z,"    0"
2018-08-06T02:29:43.843Z,"    0"
2018-08-06T02:34:39.212Z,"    0"
2018-08-06T02:39:35.304Z,"    0"
2018-08-06T02:44:31.270Z,"    0"
2018-08-06T02:49:28.123Z,"    0"
2018-08-06T02:54:23.763Z,"    0"
2018-08-06T02:59:19.588Z,"    0"
2018-08-06T03:04:15.444Z,"    0"
2018-08-06T03:09:11.284Z,"    0"
2018-08-06T03:14:06.968Z,"    0"
2018-08-06T03:19:03.516Z,"    0"
2018-08-06T03:23:59.148Z,"    0"
2018-08-06T03:28:55.528Z,"    0"
2018-08-06T03:33:51.226Z,"    0"
2018-08-06T03:38:46.959Z,"    0"
2018-08-06T03:43:43.661Z,"    0"
2018-08-06T03:48:39.123Z,"    0"
2018-08-06T03:53:34.670Z,"    5"
2018-08-06T03:58:30.558Z,"    5"
2018-08-06T04:03:26.373Z,"    5"
2018-08-06T04:08:22.281Z,"   10"
2018-08-06T04:13:19.006Z,"   15"
2018-08-06T04:18:14.944Z,"   20"
2018-08-06T04:23:10.795Z,"   20"
2018-08-06T04:28:06.622Z,"   25"
2018-08-06T04:33:03.410Z,"   30"
2018-08-06T04:38:00.181Z,"   35"
2018-08-06T04:42:55.865Z,"   55"
2018-08-06T04:47:52.855Z,"  100"
2018-08-06T04:52:49.501Z,"   60"
2018-08-06T04:57:46.078Z,"   70"
2018-08-06T05:02:42.964Z,"   70"
2018-08-06T05:07:38.930Z,"   70"
2018-08-06T05:12:34.638Z,"   85"
2018-08-06T05:17:31.161Z,"  115"
2018-08-06T05:22:27.258Z,"  100"
2018-08-06T05:27:23.448Z,"   90"
2018-08-06T05:32:22.593Z,"   85"
2018-08-06T05:37:18.784Z,"   80"
2018-08-06T05:42:14.695Z,"   85"
2018-08-06T05:47:11.108Z,"   85"
2018-08-06T05:52:07.171Z,"   85"
2018-08-06T05:57:03.193Z,"  110"
2018-08-06T06:01:59.270Z,"   90"
2018-08-06T06:06:55.220Z,"   90"
2018-08-06T06:11:51.116Z,"   90"
2018-08-06T06:16:47.047Z,"   90"
2018-08-06T06:21:42.999Z,"   85"
2018-08-06T06:26:39.689Z,"   95"
2018-08-06T06:31:35.396Z,"   85"
2018-08-06T06:36:32.110Z,"   90"
2018-08-06T06:41:27.817Z,"  105"
2018-08-06T06:46:25.266Z,"   95"
2018-08-06T06:51:20.638Z,"  115"
2018-08-06T06:56:16.893Z,"  150"
2018-08-06T07:01:13.877Z,"   90"
2018-08-06T07:06:09.281Z,"   90"
2018-08-06T07:11:05.014Z,"   90"
2018-08-06T07:16:01.253Z,"  130"
2018-08-06T07:20:57.261Z,"   95"
2018-08-06T07:25:53.580Z,"   95"
2018-08-06T07:30:49.596Z,"  150"
2018-08-06T07:35:45.660Z,"  205"
2018-08-06T07:40:41.975Z,"  100"
2018-08-06T07:45:38.023Z,"  280"
2018-08-06T07:50:35.010Z,"  495"
2018-08-06T07:55:31.989Z,"  335"
2018-08-06T08:00:30.483Z," 1090"
2018-08-06T08:05:28.888Z," 1175"
2018-08-06T08:10:27.185Z," 1120"
2018-08-06T08:15:25.060Z," 1210"
2018-08-06T08:20:22.585Z," 1170"
2018-08-06T08:25:20.779Z," 1235"
2018-08-06T08:30:17.342Z," 1275"
2018-08-06T08:35:13.768Z," 1330"
2018-08-06T08:40:10.066Z," 1250"
2018-08-06T08:45:06.490Z," 1340"
2018-08-06T08:50:02.083Z,"  865"
2018-08-06T08:54:56.615Z,"  260"
2018-08-06T08:59:52.051Z,"  275"
2018-08-06T09:04:46.673Z,"  185"
2018-08-06T09:09:41.441Z,"  130"
2018-08-06T09:14:36.353Z,"  145"
2018-08-06T09:19:32.777Z," 1270"
2018-08-06T09:24:31.077Z," 1455"
2018-08-06T09:29:29.076Z," 1450"
2018-08-06T09:34:27.105Z," 1650"
2018-08-06T09:39:24.969Z," 1650"
2018-08-06T09:44:21.741Z," 1570"
2018-08-06T09:49:18.722Z," 1425"
2018-08-06T09:54:16.697Z," 1620"
2018-08-06T09:59:13.360Z," 1620"
2018-08-06T10:04:10.164Z," 1675"
2018-08-06T10:09:06.476Z," 1670"
2018-08-06T10:14:02.673Z,"  880"
2018-08-06T10:18:57.518Z,"  830"
2018-08-06T10:23:54.709Z," 1755"
2018-08-06T10:28:51.508Z," 1805"
2018-08-06T10:33:48.141Z," 1835"
2018-08-06T10:38:44.672Z," 1730"
2018-08-06T10:43:41.569Z," 1785"
2018-08-06T10:48:37.902Z," 1715"
2018-08-06T10:53:33.628Z," 1740"
2018-08-06T10:58:29.964Z," 1810"
2018-08-06T11:03:26.815Z," 1890"
2018-08-06T11:08:23.642Z," 1885"
2018-08-06T11:13:20.637Z," 1795"
2018-08-06T11:18:16.964Z," 1815"
2018-08-06T11:23:13.792Z," 1780"
2018-08-06T11:28:10.592Z," 1830"
2018-08-06T11:33:07.298Z," 1820"
2018-08-06T11:38:04.199Z," 1875"
2018-08-06T11:43:00.870Z," 1860"
2018-08-06T11:47:57.437Z," 1890"
2018-08-06T11:52:54.268Z," 1900"
2018-08-06T11:57:50.806Z," 1880"
2018-08-06T12:02:46.952Z," 1880"
2018-08-06T12:07:43.627Z," 1875"
2018-08-06T12:12:40.260Z," 1810"
2018-08-06T12:17:37.793Z," 1940"
2018-08-06T12:22:33.472Z," 1955"
2018-08-06T12:27:29.223Z,"  995"
2018-08-06T12:32:26.043Z," 1795"
2018-08-06T12:37:21.689Z," 1845"
2018-08-06T12:42:16.802Z," 1870"
2018-08-06T12:47:11.871Z," 1800"
2018-08-06T12:52:04.926Z,"  160"
2018-08-06T12:56:59.104Z,"  695"
2018-08-06T13:01:58.416Z," 1570"
2018-08-06T13:06:55.016Z," 1900"
2018-08-06T13:11:52.104Z," 1915"
2018-08-06T13:16:47.860Z," 1820"
2018-08-06T13:21:44.776Z," 1775"
2018-08-06T13:26:41.562Z," 1795"
2018-08-06T13:31:37.277Z," 1790"
2018-08-06T13:36:33.071Z," 1760"
2018-08-06T13:41:28.772Z," 1500"
2018-08-06T13:46:24.620Z," 1495"
2018-08-06T13:51:20.259Z," 1645"
2018-08-06T13:56:16.640Z,"  210"
2018-08-06T14:01:12.544Z,"  430"
2018-08-06T14:06:07.883Z," 1545"
2018-08-06T14:11:04.790Z," 1165"
2018-08-06T14:16:00.267Z,"  735"
2018-08-06T14:20:55.528Z,"  140"
2018-08-06T14:25:51.029Z,"  425"
2018-08-06T14:30:47.652Z,"  110"
2018-08-06T14:35:43.389Z,"  105"
2018-08-06T14:40:40.002Z,"  100"
2018-08-06T14:45:36.436Z,"  100"
2018-08-06T14:50:32.022Z,"  100"
2018-08-06T14:55:27.915Z,"  100"
2018-08-06T15:00:23.748Z,"   95"
2018-08-06T15:05:19.952Z,"   95"
2018-08-06T15:10:16.060Z,"   95"
2018-08-06T15:15:13.180Z,"   95"
2018-08-06T15:20:09.895Z,"   95"
2018-08-06T15:25:05.516Z,"   95"
2018-08-06T15:30:01.540Z,"   95"
2018-08-06T15:34:58.670Z,"   90"
2018-08-06T15:39:54.389Z,"   90"
2018-08-06T15:44:50.435Z,"   90"
2018-08-06T15:49:46.549Z,"   90"
2018-08-06T15:54:43.288Z,"   90"
2018-08-06T15:59:39.262Z,"   90"
2018-08-06T16:04:36.564Z,"   90"
2018-08-06T16:09:32.650Z,"   85"
2018-08-06T16:14:29.774Z,"   85"
2018-08-06T16:19:25.591Z,"   80"
2018-08-06T16:24:21.743Z,"  100"
2018-08-06T16:29:17.964Z,"  105"
2018-08-06T16:34:14.126Z,"  105"
2018-08-06T16:39:10.589Z,"  105"
2018-08-06T16:44:06.687Z,"  100"
2018-08-06T16:49:02.832Z,"  100"
2018-08-06T16:53:58.913Z,"   95"
2018-08-06T16:58:55.033Z,"   85"
2018-08-06T17:03:52.124Z,"   80"
2018-08-06T17:08:48.103Z,"   75"
2018-08-06T17:13:43.990Z,"   70"
2018-08-06T17:18:40.129Z,"   70"
2018-08-06T17:23:36.365Z,"   70"
2018-08-06T17:28:32.463Z,"   65"
2018-08-06T17:33:28.674Z,"   60"
2018-08-06T17:38:24.473Z,"   55"
2018-08-06T17:43:20.475Z,"   55"
2018-08-06T17:48:16.501Z,"   50"
2018-08-06T17:53:13.526Z,"   45"
2018-08-06T17:58:10.242Z,"   45"
2018-08-06T18:03:06.057Z,"   40"
2018-08-06T18:08:01.889Z,"   35"
2018-08-06T18:12:57.624Z,"   35"
2018-08-06T18:17:54.380Z,"   30"
2018-08-06T18:22:50.212Z,"   30"
2018-08-06T18:27:46.632Z,"   25"
2018-08-06T18:32:42.400Z,"   25"
2018-08-06T18:37:38.466Z,"   20"
2018-08-06T18:42:35.483Z,"   20"
2018-08-06T18:47:32.050Z,"   15"
2018-08-06T18:52:28.757Z,"   15"
2018-08-06T18:57:24.360Z,"   10"
2018-08-06T19:02:20.347Z,"    5"
2018-08-06T19:07:17.100Z,"    5"
2018-08-06T19:12:13.694Z,"    0"
2018-08-06T19:17:09.347Z,"    0"
2018-08-06T19:22:06.823Z,"    0"
2018-08-06T19:27:02.411Z,"    0"
2018-08-06T19:31:58.263Z,"    0"
2018-08-06T19:36:54.092Z,"    0"
2018-08-06T19:41:51.066Z,"    0"
2018-08-06T19:46:46.548Z,"    0"
2018-08-06T19:51:42.803Z,"    0"
2018-08-06T19:56:39.732Z,"    0"
2018-08-06T20:01:35.341Z,"    0"
2018-08-06T20:06:32.295Z,"    0"
2018-08-06T20:11:28.010Z,"    0"
2018-08-06T20:16:24.157Z,"    0"
2018-08-06T20:21:21.482Z,"    0"
2018-08-06T20:26:17.208Z,"    0"
2018-08-06T20:31:12.999Z,"    0"
2018-08-06T20:36:10.153Z,"    0"
2018-08-06T20:41:05.723Z,"    0"
2018-08-06T20:46:01.687Z,"    0"
2018-08-06T20:50:58.536Z,"    0"
2018-08-06T20:55:55.157Z,"    0"
2018-08-06T21:00:51.100Z,"    0"
2018-08-06T21:05:47.315Z,"    0"
2018-08-06T21:10:44.245Z,"    0"
2018-08-06T21:15:39.786Z,"    0"
2018-08-06T21:20:35.730Z,"    0"
2018-08-06T21:25:31.638Z,"    0"
2018-08-06T21:30:28.165Z,"    0"
2018-08-06T21:35:24.692Z,"    0"
2018-08-06T21:40:20.702Z,"    0"
2018-08-06T21:45:16.503Z,"    0"
2018-08-06T21:50:12.665Z,"    0"
2018-08-06T21:55:08.477Z,"    0"
2018-08-06T22:00:05.817Z,"    0"
2018-08-06T22:05:01.326Z,"    0"
2018-08-06T22:09:57.060Z,"    0"
2018-08-06T22:14:53.019Z,"    0"
2018-08-06T22:19:49.074Z,"    0"
2018-08-06T22:24:45.406Z,"    0"
2018-08-06T22:29:41.459Z,"    0"
2018-08-06T22:34:37.433Z,"    0"
2018-08-06T22:39:33.418Z,"    0"
2018-08-06T22:44:30.387Z,"    0"
2018-08-06T22:49:26.429Z,"    0"
2018-08-06T22:54:22.256Z,"    0"
2018-08-06T22:59:19.405Z,"    0"
2018-08-06T23:04:15.337Z,"    0"
2018-08-06T23:09:11.204Z,"    0"
2018-08-06T23:14:07.449Z,"    0"
2018-08-06T23:19:03.620Z,"    0"
2018-08-06T23:23:59.667Z,"    0"
2018-08-06T23:28:55.609Z,"    0"
2018-08-06T23:33:51.485Z,"    0"
2018-08-06T23:38:47.492Z,"    0"
2018-08-06T23:43:43.521Z,"    0"
2018-08-06T23:48:40.794Z,"    0"
2018-08-06T23:53:36.011Z,"    0"
2018-08-06T23:58:33.353Z,"    0"
